createdAt,value
2019-02-07T00:00:53.003Z,48.45
2019-02-07T00:01:55.213Z,48.41
2019-02-07T00:02:57.460Z,48.41
2019-02-07T00:03:59.665Z,48.43
2019-02-07T00:05:04.043Z,48.43
2019-02-07T00:06:06.341Z,48.42
2019-02-07T00:07:10.307Z,48.42
2019-02-07T00:08:12.545Z,48.46
2019-02-07T00:09:15.087Z,48.46
2019-02-07T00:10:17.313Z,48.47
2019-02-07T00:11:19.522Z,48.48
2019-02-07T00:12:21.758Z,48.48
2019-02-07T00:13:23.998Z,48.49
2019-02-07T00:14:26.217Z,48.48
2019-02-07T00:15:28.520Z,48.51
2019-02-07T00:16:30.735Z,48.48
2019-02-07T00:17:32.943Z,48.48
2019-02-07T00:18:35.191Z,48.47
2019-02-07T00:19:37.533Z,48.45
2019-02-07T00:20:40.131Z,48.49
2019-02-07T00:21:42.341Z,48.49
2019-02-07T00:22:44.559Z,48.53
2019-02-07T00:23:46.998Z,48.52
2019-02-07T00:24:49.423Z,48.50
2019-02-07T00:25:51.690Z,48.48
2019-02-07T00:26:57.172Z,48.50
2019-02-07T00:27:59.385Z,48.49
2019-02-07T00:29:01.615Z,48.52
2019-02-07T00:30:03.828Z,48.55
2019-02-07T00:31:06.043Z,48.52
2019-02-07T00:32:08.655Z,48.54
2019-02-07T00:33:10.878Z,48.54
2019-02-07T00:34:13.221Z,48.52
2019-02-07T00:35:15.423Z,48.53
2019-02-07T00:36:17.641Z,48.53
2019-02-07T00:37:19.885Z,48.55
2019-02-07T00:38:22.098Z,48.54
2019-02-07T00:39:24.333Z,48.55
2019-02-07T00:40:26.555Z,48.55
2019-02-07T00:41:28.772Z,48.55
2019-02-07T00:42:31.193Z,48.54
2019-02-07T00:43:33.699Z,48.57
2019-02-07T00:44:35.957Z,48.58
2019-02-07T00:45:38.199Z,48.56
2019-02-07T00:46:40.410Z,48.56
2019-02-07T00:47:42.618Z,48.58
2019-02-07T00:48:44.834Z,48.55
2019-02-07T00:49:47.063Z,48.56
2019-02-07T00:50:49.271Z,48.55
2019-02-07T00:51:51.483Z,48.61
2019-02-07T00:52:53.701Z,48.57
2019-02-07T00:53:58.977Z,48.60
2019-02-07T00:55:01.215Z,48.63
2019-02-07T00:56:03.422Z,48.61
2019-02-07T00:57:05.619Z,48.62
2019-02-07T00:58:07.939Z,48.61
2019-02-07T00:59:10.209Z,48.60
2019-02-07T01:00:12.438Z,48.63
2019-02-07T01:01:17.678Z,48.64
2019-02-07T01:02:19.883Z,48.64
2019-02-07T01:03:22.299Z,48.63
2019-02-07T01:04:25.755Z,48.61
2019-02-07T01:05:28.231Z,48.66
2019-02-07T01:06:30.827Z,48.67
2019-02-07T01:07:33.144Z,48.65
2019-02-07T01:08:35.420Z,48.68
2019-02-07T01:09:37.647Z,48.67
2019-02-07T01:10:39.893Z,48.67
2019-02-07T01:11:42.120Z,48.67
2019-02-07T01:12:44.329Z,48.67
2019-02-07T01:13:46.545Z,48.66
2019-02-07T01:14:48.785Z,48.63
2019-02-07T01:15:51.076Z,48.62
2019-02-07T01:16:53.607Z,48.65
2019-02-07T01:17:55.812Z,48.67
2019-02-07T01:18:58.017Z,48.69
2019-02-07T01:20:00.288Z,48.69
2019-02-07T01:21:02.459Z,48.68
2019-02-07T01:22:04.712Z,48.70
2019-02-07T01:23:06.920Z,48.68
2019-02-07T01:24:09.113Z,48.69
2019-02-07T01:25:11.350Z,48.71
2019-02-07T01:26:13.593Z,48.69
2019-02-07T01:27:16.026Z,48.70
2019-02-07T01:28:18.411Z,48.69
2019-02-07T01:29:20.772Z,48.68
2019-02-07T01:30:23.021Z,48.64
2019-02-07T01:31:25.252Z,48.66
2019-02-07T01:32:27.461Z,48.66
2019-02-07T01:33:29.677Z,48.65
2019-02-07T01:34:31.905Z,48.65
2019-02-07T01:35:34.253Z,48.63
2019-02-07T01:36:36.471Z,48.65
2019-02-07T01:37:38.791Z,48.64
2019-02-07T01:38:41.483Z,48.66
2019-02-07T01:39:43.709Z,48.69
2019-02-07T01:40:45.969Z,48.66
2019-02-07T01:41:48.222Z,48.65
2019-02-07T01:42:50.464Z,48.65
2019-02-07T01:43:54.443Z,48.63
2019-02-07T01:44:56.659Z,48.66
2019-02-07T01:45:58.917Z,48.66
2019-02-07T01:47:01.129Z,48.66
2019-02-07T01:48:03.414Z,48.65
2019-02-07T01:49:06.031Z,48.64
2019-02-07T01:50:08.255Z,48.65
2019-02-07T01:51:10.495Z,48.67
2019-02-07T01:52:12.744Z,48.64
2019-02-07T01:53:17.734Z,48.65
2019-02-07T01:54:19.857Z,48.64
2019-02-07T01:55:22.103Z,48.68
2019-02-07T01:56:24.326Z,48.64
2019-02-07T01:57:26.553Z,48.66
2019-02-07T01:58:28.771Z,48.67
2019-02-07T01:59:30.998Z,48.64
2019-02-07T02:00:33.520Z,48.63
2019-02-07T02:01:35.760Z,48.62
2019-02-07T02:02:37.970Z,48.63
2019-02-07T02:03:40.214Z,48.62
2019-02-07T02:04:42.432Z,48.62
2019-02-07T02:05:44.661Z,48.62
2019-02-07T02:06:47.898Z,48.62
2019-02-07T02:07:50.117Z,48.63
2019-02-07T02:08:52.484Z,48.61
2019-02-07T02:09:54.903Z,48.61
2019-02-07T02:10:57.422Z,48.62
2019-02-07T02:11:59.673Z,48.61
2019-02-07T02:13:01.957Z,48.63
2019-02-07T02:14:04.259Z,48.61
2019-02-07T02:15:06.472Z,48.57
2019-02-07T02:16:08.700Z,48.60
2019-02-07T02:17:10.976Z,48.60
2019-02-07T02:18:13.180Z,48.60
2019-02-07T02:19:15.412Z,48.61
2019-02-07T02:20:17.615Z,48.62
2019-02-07T02:21:19.835Z,48.61
2019-02-07T02:22:24.714Z,48.60
2019-02-07T02:23:26.986Z,48.60
2019-02-07T02:24:29.424Z,48.62
2019-02-07T02:25:31.840Z,48.59
2019-02-07T02:26:34.125Z,48.59
2019-02-07T02:27:36.369Z,48.61
2019-02-07T02:28:38.586Z,48.60
2019-02-07T02:29:40.810Z,48.61
2019-02-07T02:30:43.129Z,48.61
2019-02-07T02:31:48.361Z,48.61
2019-02-07T02:32:50.612Z,48.63
2019-02-07T02:33:53.316Z,48.61
2019-02-07T02:34:55.544Z,48.61
2019-02-07T02:35:57.747Z,48.61
2019-02-07T02:36:59.969Z,48.62
2019-02-07T02:38:02.184Z,48.62
2019-02-07T02:39:04.907Z,48.59
2019-02-07T02:40:07.085Z,48.59
2019-02-07T02:41:09.324Z,48.60
2019-02-07T02:42:11.536Z,48.60
2019-02-07T02:43:13.776Z,48.57
2019-02-07T02:44:16.314Z,48.58
2019-02-07T02:45:18.549Z,48.57
2019-02-07T02:46:20.758Z,48.57
2019-02-07T02:47:23.017Z,48.58
2019-02-07T02:48:25.254Z,48.58
2019-02-07T02:49:27.492Z,48.60
2019-02-07T02:50:29.714Z,48.60
2019-02-07T02:51:31.939Z,48.59
2019-02-07T02:52:34.199Z,48.61
2019-02-07T02:53:36.473Z,48.59
2019-02-07T02:54:44.946Z,48.61
2019-02-07T02:55:47.392Z,48.61
2019-02-07T02:56:49.606Z,48.60
2019-02-07T02:57:51.850Z,48.59
2019-02-07T02:58:54.075Z,48.62
2019-02-07T02:59:56.287Z,48.62
2019-02-07T03:01:23.282Z,48.61
2019-02-07T03:02:35.805Z,48.60
2019-02-07T03:04:00.156Z,48.59
2019-02-07T03:05:20.266Z,48.62
2019-02-07T03:06:47.267Z,48.61
2019-02-07T03:08:07.439Z,48.60
2019-02-07T03:09:27.522Z,48.61
2019-02-07T03:11:00.930Z,48.62
2019-02-07T03:12:15.775Z,48.61
2019-02-07T03:13:31.698Z,48.62
2019-02-07T03:15:05.251Z,48.62
2019-02-07T03:16:41.458Z,48.63
2019-02-07T03:18:11.755Z,48.62
2019-02-07T03:19:41.970Z,48.63
2019-02-07T03:21:05.053Z,48.62
2019-02-07T03:22:25.408Z,48.64
2019-02-07T03:23:52.984Z,48.64
2019-02-07T03:25:23.226Z,48.62
2019-02-07T03:26:51.120Z,48.63
2019-02-07T03:28:12.658Z,48.61
2019-02-07T03:29:49.248Z,48.58
2019-02-07T03:31:10.436Z,48.62
2019-02-07T03:32:29.232Z,48.63
2019-02-07T03:33:59.438Z,48.63
2019-02-07T03:35:19.243Z,48.62
2019-02-07T03:36:38.319Z,48.62
2019-02-07T03:37:54.873Z,48.58
2019-02-07T03:39:25.104Z,48.60
2019-02-07T03:40:46.252Z,48.61
2019-02-07T03:42:07.734Z,48.61
2019-02-07T03:43:35.059Z,48.62
2019-02-07T03:46:32.317Z,48.60
2019-02-07T03:47:47.897Z,48.61
2019-02-07T03:49:00.465Z,48.63
2019-02-07T03:50:19.138Z,48.62
2019-02-07T03:51:43.115Z,48.60
2019-02-07T03:53:03.078Z,48.63
2019-02-07T03:54:26.995Z,48.63
2019-02-07T03:55:59.321Z,48.63
2019-02-07T03:57:29.630Z,48.64
2019-02-07T03:58:50.818Z,48.63
2019-02-07T04:01:50.914Z,48.63
2019-02-07T04:03:02.722Z,48.65
2019-02-07T04:04:32.917Z,48.67
2019-02-07T04:05:53.041Z,48.65
2019-02-07T04:07:14.519Z,48.68
2019-02-07T04:08:47.680Z,48.67
2019-02-07T04:09:58.971Z,48.65
2019-02-07T04:11:19.060Z,48.65
2019-02-07T04:12:46.524Z,48.67
2019-02-07T04:14:08.206Z,48.68
2019-02-07T04:15:47.898Z,48.65
2019-02-07T04:17:06.438Z,48.65
2019-02-07T04:18:42.584Z,48.65
2019-02-07T04:19:53.633Z,48.67
2019-02-07T04:21:29.894Z,48.65
2019-02-07T04:22:49.778Z,48.68
2019-02-07T04:24:18.547Z,48.69
2019-02-07T04:25:38.825Z,48.67
2019-02-07T04:26:51.235Z,48.67
2019-02-07T04:28:12.414Z,48.69
2019-02-07T04:29:39.512Z,48.67
2019-02-07T04:30:49.185Z,48.67
2019-02-07T04:32:14.452Z,48.67
2019-02-07T04:33:39.826Z,48.68
2019-02-07T04:35:08.667Z,48.67
2019-02-07T04:36:17.479Z,48.67
2019-02-07T04:37:57.157Z,48.67
2019-02-07T04:39:25.982Z,48.65
2019-02-07T04:40:43.712Z,48.67
2019-02-07T04:42:11.129Z,48.68
2019-02-07T04:43:44.281Z,48.68
2019-02-07T04:45:15.214Z,48.68
2019-02-07T04:46:35.607Z,48.69
2019-02-07T04:47:56.781Z,48.69
2019-02-07T04:49:15.934Z,48.68
2019-02-07T04:50:37.143Z,48.68
2019-02-07T04:51:50.470Z,48.68
2019-02-07T04:53:14.683Z,48.69
2019-02-07T04:54:28.441Z,48.68
2019-02-07T04:55:49.046Z,48.68
2019-02-07T04:57:12.982Z,48.68
2019-02-07T04:58:52.506Z,48.69
2019-02-07T05:00:12.018Z,48.69
2019-02-07T05:01:35.952Z,48.68
2019-02-07T05:02:59.643Z,48.70
2019-02-07T05:04:20.803Z,48.71
2019-02-07T05:05:40.967Z,48.68
2019-02-07T05:07:11.497Z,48.69
2019-02-07T05:08:32.664Z,48.70
2019-02-07T05:10:05.877Z,48.69
2019-02-07T05:11:45.264Z,48.69
2019-02-07T05:13:04.970Z,48.71
2019-02-07T05:14:44.578Z,48.70
2019-02-07T05:16:08.435Z,48.70
2019-02-07T05:17:35.794Z,48.68
2019-02-07T05:18:47.397Z,48.70
2019-02-07T05:20:07.394Z,48.70
2019-02-07T05:21:41.643Z,48.70
2019-02-07T05:22:57.610Z,48.71
2019-02-07T05:24:17.536Z,48.70
2019-02-07T05:25:41.762Z,48.69
2019-02-07T05:27:02.924Z,48.70
2019-02-07T05:28:22.456Z,48.67
2019-02-07T05:29:43.652Z,48.69
2019-02-07T05:31:06.814Z,48.67
2019-02-07T05:32:37.159Z,48.63
2019-02-07T05:33:58.312Z,48.65
2019-02-07T05:35:22.544Z,48.62
2019-02-07T05:36:44.814Z,48.63
2019-02-07T05:38:06.002Z,48.60
2019-02-07T05:39:33.241Z,48.60
2019-02-07T05:41:03.715Z,48.59
2019-02-07T05:42:39.779Z,48.59
2019-02-07T05:43:59.570Z,48.59
2019-02-07T05:45:19.561Z,48.55
2019-02-07T05:46:50.644Z,48.57
2019-02-07T05:48:05.444Z,48.54
2019-02-07T05:49:28.115Z,48.54
2019-02-07T05:50:47.888Z,48.55
2019-02-07T05:52:08.500Z,48.58
2019-02-07T05:53:25.989Z,48.53
2019-02-07T05:54:45.912Z,48.52
2019-02-07T05:56:13.310Z,48.51
2019-02-07T05:57:37.438Z,48.53
2019-02-07T05:59:02.889Z,48.53
2019-02-07T06:00:22.991Z,48.54
2019-02-07T06:01:44.980Z,48.53
2019-02-07T06:02:49.161Z,48.55
2019-02-07T06:04:03.946Z,48.54
2019-02-07T06:05:31.975Z,48.60
2019-02-07T06:06:51.819Z,48.63
2019-02-07T06:08:25.131Z,48.63
2019-02-07T06:09:36.539Z,48.65
2019-02-07T06:11:02.980Z,48.65
2019-02-07T06:12:16.680Z,48.68
2019-02-07T06:13:31.888Z,48.69
2019-02-07T06:14:46.492Z,48.70
2019-02-07T06:16:07.644Z,48.69
2019-02-07T06:17:27.681Z,48.67
2019-02-07T06:18:57.676Z,48.61
2019-02-07T06:20:33.946Z,48.57
2019-02-07T06:21:57.900Z,48.66
2019-02-07T06:23:19.053Z,48.69
2019-02-07T06:24:43.091Z,48.61
2019-02-07T06:26:03.098Z,48.67
2019-02-07T06:27:30.133Z,48.56
2019-02-07T06:28:54.331Z,48.59
2019-02-07T06:30:21.379Z,48.59
2019-02-07T06:31:54.894Z,48.61
2019-02-07T06:33:11.122Z,48.61
2019-02-07T06:34:31.961Z,48.64
2019-02-07T06:35:53.125Z,48.62
2019-02-07T06:37:20.383Z,48.65
2019-02-07T06:38:44.350Z,48.63
2019-02-07T06:39:59.193Z,48.62
2019-02-07T06:41:32.396Z,48.62
2019-02-07T06:43:03.394Z,48.58
2019-02-07T06:44:33.839Z,48.63
2019-02-07T06:45:57.779Z,48.62
2019-02-07T06:47:26.661Z,48.61
2019-02-07T06:48:38.419Z,48.61
2019-02-07T06:49:51.269Z,48.64
2019-02-07T06:51:18.230Z,48.65
2019-02-07T06:52:31.879Z,48.54
2019-02-07T06:53:49.147Z,48.51
2019-02-07T06:55:13.111Z,48.50
2019-02-07T06:56:46.225Z,48.51
2019-02-07T06:58:19.287Z,48.54
2019-02-07T06:59:32.066Z,48.54
2019-02-07T07:00:57.067Z,48.60
2019-02-07T07:02:32.593Z,48.59
2019-02-07T07:03:57.739Z,48.64
2019-02-07T07:05:21.853Z,48.64
2019-02-07T07:06:38.781Z,48.61
2019-02-07T07:08:02.877Z,48.61
2019-02-07T07:09:22.924Z,48.52
2019-02-07T07:10:50.353Z,48.59
2019-02-07T07:12:16.595Z,48.60
2019-02-07T07:13:40.498Z,48.60
2019-02-07T07:15:00.422Z,48.63
2019-02-07T07:16:24.657Z,48.64
2019-02-07T07:17:39.018Z,48.64
2019-02-07T07:19:09.247Z,48.65
2019-02-07T07:20:29.127Z,48.66
2019-02-07T07:21:54.973Z,48.62
2019-02-07T07:23:14.973Z,48.63
2019-02-07T07:24:34.275Z,48.66
2019-02-07T07:25:55.435Z,48.63
2019-02-07T07:27:16.634Z,48.64
2019-02-07T07:28:36.650Z,48.64
2019-02-07T07:29:51.503Z,48.64
2019-02-07T07:31:11.292Z,48.66
2019-02-07T07:32:31.059Z,48.64
2019-02-07T07:34:01.350Z,48.72
2019-02-07T07:35:31.263Z,48.70
2019-02-07T07:36:58.368Z,48.68
2019-02-07T07:38:35.278Z,48.68
2019-02-07T07:40:05.731Z,48.68
2019-02-07T07:41:26.869Z,48.68
2019-02-07T07:42:46.824Z,48.70
2019-02-07T07:44:07.182Z,48.69
2019-02-07T07:45:28.346Z,48.69
2019-02-07T07:46:49.498Z,48.69
2019-02-07T07:48:12.490Z,48.68
2019-02-07T07:49:29.236Z,48.65
2019-02-07T07:50:50.432Z,48.66
2019-02-07T07:52:14.628Z,48.64
2019-02-07T07:53:44.918Z,48.68
2019-02-07T07:55:12.296Z,48.62
2019-02-07T07:56:24.866Z,48.64
2019-02-07T07:57:46.042Z,48.63
2019-02-07T08:00:31.214Z,48.70
2019-02-07T08:01:51.061Z,48.70
2019-02-07T08:03:24.186Z,48.70
2019-02-07T08:04:54.738Z,48.70
2019-02-07T08:06:34.210Z,48.74
2019-02-07T08:08:13.849Z,48.72
2019-02-07T08:09:50.286Z,48.74
2019-02-07T08:11:11.544Z,48.74
2019-02-07T08:12:35.669Z,48.74
2019-02-07T08:13:55.810Z,48.75
2019-02-07T08:15:11.920Z,48.74
2019-02-07T08:16:35.050Z,48.77
2019-02-07T08:18:09.482Z,48.78
2019-02-07T08:19:45.770Z,48.77
2019-02-07T08:21:05.982Z,48.75
2019-02-07T08:22:27.127Z,48.78
2019-02-07T08:23:39.490Z,48.80
2019-02-07T08:25:09.740Z,48.80
2019-02-07T08:26:33.750Z,48.79
2019-02-07T08:28:05.412Z,48.80
2019-02-07T08:29:23.867Z,48.78
2019-02-07T08:30:36.692Z,48.77
2019-02-07T08:31:56.810Z,48.83
2019-02-07T08:33:24.026Z,48.80
2019-02-07T08:34:41.191Z,48.84
2019-02-07T08:36:10.093Z,48.79
2019-02-07T08:37:23.718Z,48.81
2019-02-07T08:40:22.742Z,48.84
2019-02-07T08:41:44.843Z,48.81
2019-02-07T08:43:04.605Z,48.79
2019-02-07T08:44:41.202Z,48.81
2019-02-07T08:46:18.196Z,48.84
2019-02-07T08:47:58.416Z,48.86
2019-02-07T08:49:17.147Z,48.83
2019-02-07T08:50:56.803Z,48.83
2019-02-07T08:52:17.954Z,48.85
2019-02-07T08:53:48.486Z,48.82
2019-02-07T08:54:59.679Z,48.85
2019-02-07T08:56:19.891Z,48.84
2019-02-07T08:57:56.559Z,48.82
2019-02-07T08:59:26.923Z,48.82
2019-02-07T09:00:56.676Z,48.80
2019-02-07T09:02:17.946Z,48.82
2019-02-07T09:03:36.487Z,48.83
2019-02-07T09:05:04.914Z,48.86
2019-02-07T09:06:41.367Z,48.85
2019-02-07T09:08:01.799Z,48.88
2019-02-07T09:09:25.839Z,48.86
2019-02-07T09:10:47.515Z,48.83
2019-02-07T09:12:06.498Z,48.86
2019-02-07T09:13:26.409Z,48.85
2019-02-07T09:14:56.896Z,48.84
2019-02-07T09:16:21.171Z,48.83
2019-02-07T09:19:21.196Z,48.89
2019-02-07T09:20:48.227Z,48.85
2019-02-07T09:22:04.659Z,48.86
2019-02-07T09:23:25.821Z,48.86
2019-02-07T09:24:45.720Z,48.81
2019-02-07T09:26:19.176Z,48.81
2019-02-07T09:27:49.404Z,48.83
2019-02-07T09:29:22.449Z,48.81
2019-02-07T09:30:42.623Z,48.88
2019-02-07T09:32:12.617Z,48.87
2019-02-07T09:33:26.906Z,48.88
2019-02-07T09:34:49.708Z,48.89
2019-02-07T09:36:10.114Z,48.90
2019-02-07T09:37:30.203Z,48.89
2019-02-07T09:38:52.806Z,48.87
2019-02-07T09:40:09.591Z,48.89
2019-02-07T09:41:33.803Z,48.84
2019-02-07T09:42:54.098Z,48.82
2019-02-07T09:44:18.391Z,48.86
2019-02-07T09:45:38.933Z,48.88
2019-02-07T09:47:09.228Z,48.91
2019-02-07T09:48:42.714Z,48.92
2019-02-07T09:50:12.556Z,48.93
2019-02-07T09:51:42.603Z,48.89
2019-02-07T09:52:56.173Z,48.90
2019-02-07T09:54:26.474Z,48.87
2019-02-07T09:55:42.979Z,48.91
2019-02-07T09:56:55.812Z,48.89
2019-02-07T09:58:23.307Z,48.88
2019-02-07T09:59:48.229Z,48.85
2019-02-07T10:01:07.586Z,48.89
2019-02-07T10:02:28.367Z,48.89
2019-02-07T10:03:36.867Z,48.89
2019-02-07T10:04:49.476Z,48.89
2019-02-07T10:06:09.283Z,48.89
2019-02-07T10:07:43.028Z,48.89
2019-02-07T10:09:08.464Z,48.89
2019-02-07T10:10:44.978Z,48.87
2019-02-07T10:12:05.409Z,48.89
2019-02-07T10:13:26.557Z,48.95
2019-02-07T10:14:48.004Z,48.92
2019-02-07T10:16:27.600Z,48.93
2019-02-07T10:17:48.019Z,48.88
2019-02-07T10:19:15.306Z,48.87
2019-02-07T10:20:37.323Z,48.88
2019-02-07T10:21:53.290Z,48.86
2019-02-07T10:23:26.543Z,48.85
2019-02-07T10:24:48.899Z,48.83
2019-02-07T10:26:10.070Z,48.87
2019-02-07T10:27:31.218Z,48.92
2019-02-07T10:28:52.412Z,48.89
2019-02-07T10:30:19.396Z,48.90
2019-02-07T10:31:35.957Z,48.82
2019-02-07T10:33:09.028Z,48.83
2019-02-07T10:34:24.973Z,48.78
2019-02-07T10:36:01.909Z,48.82
2019-02-07T10:37:15.431Z,48.86
2019-02-07T10:38:36.942Z,48.85
2019-02-07T10:39:58.726Z,48.83
2019-02-07T10:41:19.863Z,48.81
2019-02-07T10:42:59.809Z,48.74
2019-02-07T10:44:17.431Z,48.77
2019-02-07T10:45:37.500Z,48.79
2019-02-07T10:47:14.165Z,48.79
2019-02-07T10:48:43.955Z,48.81
2019-02-07T10:49:46.300Z,48.74
2019-02-07T10:51:00.330Z,48.69
2019-02-07T10:52:21.992Z,48.69
2019-02-07T10:54:01.947Z,48.71
2019-02-07T10:55:21.951Z,48.75
2019-02-07T10:56:49.410Z,48.79
2019-02-07T10:58:13.995Z,48.76
2019-02-07T10:59:50.324Z,48.80
2019-02-07T11:01:04.717Z,48.77
2019-02-07T11:02:38.732Z,48.74
2019-02-07T11:04:00.557Z,48.77
2019-02-07T11:05:21.150Z,48.76
2019-02-07T11:06:39.686Z,48.75
2019-02-07T11:08:08.539Z,48.74
2019-02-07T11:09:31.230Z,48.75
2019-02-07T11:10:51.044Z,48.78
2019-02-07T11:12:15.089Z,48.81
2019-02-07T11:13:42.330Z,48.81
2019-02-07T11:15:12.815Z,48.83
2019-02-07T11:16:42.984Z,48.83
2019-02-07T11:18:02.733Z,48.82
2019-02-07T11:19:32.917Z,48.83
2019-02-07T11:20:57.141Z,48.87
2019-02-07T11:22:18.678Z,48.85
2019-02-07T11:23:37.163Z,48.87
2019-02-07T11:24:57.243Z,48.88
2019-02-07T11:26:24.616Z,48.96
2019-02-07T11:27:35.826Z,48.95
2019-02-07T11:29:00.339Z,48.88
2019-02-07T11:30:19.996Z,48.98
2019-02-07T11:31:30.004Z,48.97
2019-02-07T11:32:57.294Z,49.01
2019-02-07T11:34:24.699Z,49.01
2019-02-07T11:35:51.896Z,49.01
2019-02-07T11:37:09.281Z,49.00
2019-02-07T11:38:29.395Z,49.01
2019-02-07T11:40:06.128Z,49.06
2019-02-07T11:41:17.064Z,49.06
2019-02-07T11:42:38.206Z,49.08
2019-02-07T11:43:53.853Z,49.00
2019-02-07T11:45:24.301Z,49.04
2019-02-07T11:46:43.981Z,49.02
2019-02-07T11:49:39.631Z,49.13
2019-02-07T11:51:07.045Z,49.08
2019-02-07T11:52:34.216Z,49.09
2019-02-07T11:53:54.242Z,49.08
2019-02-07T11:55:14.042Z,49.11
2019-02-07T11:56:35.192Z,49.10
2019-02-07T11:57:59.138Z,49.11
2019-02-07T11:59:20.283Z,49.04
2019-02-07T12:00:53.921Z,49.07
2019-02-07T12:02:30.307Z,49.11
2019-02-07T12:03:51.475Z,49.10
2019-02-07T12:05:05.871Z,49.10
2019-02-07T12:06:42.083Z,49.07
2019-02-07T12:08:15.155Z,49.08
2019-02-07T12:09:34.721Z,49.05
2019-02-07T12:10:58.670Z,48.99
2019-02-07T12:12:25.826Z,49.01
2019-02-07T12:13:50.097Z,49.02
2019-02-07T12:15:20.606Z,49.02
2019-02-07T12:17:01.471Z,49.02
2019-02-07T12:18:21.451Z,49.03
2019-02-07T12:19:51.524Z,49.03
2019-02-07T12:21:18.966Z,49.01
2019-02-07T12:22:46.167Z,49.07
2019-02-07T12:24:10.232Z,49.10
2019-02-07T12:25:30.799Z,49.10
2019-02-07T12:26:54.750Z,49.09
2019-02-07T12:28:25.251Z,49.08
2019-02-07T12:29:52.811Z,49.09
2019-02-07T12:31:16.936Z,49.11
2019-02-07T12:32:38.093Z,49.05
2019-02-07T12:34:11.347Z,49.04
2019-02-07T12:35:47.860Z,49.00
2019-02-07T12:37:05.056Z,48.95
2019-02-07T12:38:26.210Z,48.95
2019-02-07T12:39:53.142Z,48.95
2019-02-07T12:41:20.723Z,48.89
2019-02-07T12:42:40.351Z,48.93
2019-02-07T12:44:07.538Z,48.97
2019-02-07T12:45:33.319Z,48.97
2019-02-07T12:46:54.326Z,48.97
2019-02-07T12:50:03.340Z,48.95
2019-02-07T12:51:27.570Z,49.01
2019-02-07T12:53:07.033Z,49.03
2019-02-07T12:54:18.166Z,49.01
2019-02-07T12:55:51.954Z,49.04
2019-02-07T12:56:58.261Z,49.08
2019-02-07T12:58:22.501Z,49.10
2019-02-07T12:59:42.310Z,49.12
2019-02-07T13:01:05.844Z,49.11
2019-02-07T13:02:18.718Z,49.13
2019-02-07T13:03:49.611Z,49.16
2019-02-07T13:05:13.544Z,49.15
2019-02-07T13:06:40.641Z,49.16
2019-02-07T13:07:51.039Z,49.14
2019-02-07T13:09:10.800Z,49.15
2019-02-07T13:10:38.150Z,49.18
2019-02-07T13:11:58.123Z,49.19
2019-02-07T13:13:20.971Z,49.20
2019-02-07T13:15:00.484Z,49.20
2019-02-07T13:16:15.803Z,49.16
2019-02-07T13:17:35.363Z,49.10
2019-02-07T13:18:55.175Z,49.12
2019-02-07T13:20:25.858Z,49.09
2019-02-07T13:21:45.798Z,49.12
2019-02-07T13:23:05.900Z,49.09
2019-02-07T13:24:27.052Z,49.11
2019-02-07T13:25:54.473Z,49.14
2019-02-07T13:27:14.545Z,49.16
2019-02-07T13:28:41.538Z,49.19
2019-02-07T13:30:02.526Z,49.20
2019-02-07T13:31:39.188Z,49.15
2019-02-07T13:32:58.738Z,49.17
2019-02-07T13:34:19.895Z,49.17
2019-02-07T13:35:39.720Z,49.15
2019-02-07T13:37:06.066Z,49.17
2019-02-07T13:38:33.002Z,49.17
2019-02-07T13:39:56.074Z,49.15
2019-02-07T13:41:20.307Z,49.12
2019-02-07T13:42:39.698Z,49.14
2019-02-07T13:44:09.901Z,49.15
2019-02-07T13:45:34.906Z,49.13
2019-02-07T13:46:59.002Z,49.02
2019-02-07T13:48:24.494Z,48.97
2019-02-07T13:49:58.118Z,48.94
2019-02-07T13:51:25.512Z,48.88
2019-02-07T13:52:45.480Z,48.88
2019-02-07T13:54:06.636Z,48.87
2019-02-07T13:55:29.863Z,48.85
2019-02-07T13:56:50.302Z,48.84
2019-02-07T13:58:11.444Z,48.81
2019-02-07T13:59:32.620Z,48.78
2019-02-07T14:01:00.077Z,48.76
2019-02-07T14:02:33.375Z,48.78
2019-02-07T14:03:48.641Z,48.73
2019-02-07T14:05:07.143Z,48.75
2019-02-07T14:06:43.284Z,48.76
2019-02-07T14:08:14.434Z,48.74
2019-02-07T14:09:34.179Z,48.73
2019-02-07T14:11:09.447Z,48.71
2019-02-07T14:12:29.535Z,48.70
2019-02-07T14:13:49.628Z,48.71
2019-02-07T14:15:23.641Z,48.78
2019-02-07T14:16:43.738Z,48.73
2019-02-07T14:18:03.414Z,48.73
2019-02-07T14:19:19.432Z,48.72
2019-02-07T14:20:52.749Z,48.70
2019-02-07T14:22:26.179Z,48.72
2019-02-07T14:23:45.750Z,48.66
2019-02-07T14:25:15.944Z,48.64
2019-02-07T14:26:35.713Z,48.65
2019-02-07T14:27:56.865Z,48.66
2019-02-07T14:29:19.535Z,48.61
2019-02-07T14:30:31.619Z,48.58
2019-02-07T14:31:51.748Z,48.55
2019-02-07T14:33:03.177Z,48.55
2019-02-07T14:34:24.369Z,48.50
2019-02-07T14:35:53.870Z,48.55
2019-02-07T14:37:13.249Z,48.55
2019-02-07T14:38:37.451Z,48.52
2019-02-07T14:41:43.426Z,48.53
2019-02-07T14:43:07.347Z,48.51
2019-02-07T14:44:29.869Z,48.49
2019-02-07T14:45:43.522Z,48.51
2019-02-07T14:46:52.833Z,48.51
2019-02-07T14:47:55.078Z,48.49
2019-02-07T14:48:57.300Z,48.48
2019-02-07T14:49:59.607Z,48.43
2019-02-07T14:51:01.842Z,48.53
2019-02-07T14:52:04.147Z,48.48
2019-02-07T14:53:06.387Z,48.49
2019-02-07T14:54:08.656Z,48.49
2019-02-07T14:55:10.882Z,48.51
2019-02-07T14:56:13.497Z,48.45
2019-02-07T14:57:15.771Z,48.45
2019-02-07T14:58:18.113Z,48.46
2019-02-07T14:59:20.255Z,48.48
2019-02-07T15:00:22.484Z,48.48
2019-02-07T15:01:24.662Z,48.49
2019-02-07T15:02:26.886Z,48.48
2019-02-07T15:03:29.195Z,48.45
2019-02-07T15:04:31.411Z,48.45
2019-02-07T15:05:33.743Z,48.44
2019-02-07T15:06:36.260Z,48.47
2019-02-07T15:07:38.464Z,48.51
2019-02-07T15:08:40.694Z,48.48
2019-02-07T15:09:42.907Z,48.45
2019-02-07T15:10:45.113Z,48.42
2019-02-07T15:11:47.610Z,48.47
2019-02-07T15:12:49.856Z,48.47
2019-02-07T15:13:52.066Z,48.47
2019-02-07T15:14:54.369Z,48.46
2019-02-07T15:15:56.518Z,48.44
2019-02-07T15:16:58.925Z,48.44
2019-02-07T15:18:01.201Z,48.50
2019-02-07T15:19:03.427Z,48.46
2019-02-07T15:20:07.497Z,48.45
2019-02-07T15:21:09.775Z,48.46
2019-02-07T15:22:12.029Z,48.47
2019-02-07T15:23:14.249Z,48.47
2019-02-07T15:24:16.498Z,48.51
2019-02-07T15:25:18.704Z,48.53
2019-02-07T15:26:21.011Z,48.46
2019-02-07T15:27:23.216Z,48.44
2019-02-07T15:28:25.610Z,48.44
2019-02-07T15:29:27.844Z,48.40
2019-02-07T15:30:30.064Z,48.39
2019-02-07T15:31:32.274Z,48.42
2019-02-07T15:32:34.488Z,48.40
2019-02-07T15:33:36.686Z,48.34
2019-02-07T15:34:38.951Z,48.39
2019-02-07T15:35:41.165Z,48.41
2019-02-07T15:36:43.375Z,48.41
2019-02-07T15:37:45.591Z,48.39
2019-02-07T15:38:48.101Z,48.39
2019-02-07T15:39:50.326Z,48.41
2019-02-07T15:40:52.555Z,48.38
2019-02-07T15:41:54.767Z,48.38
2019-02-07T15:42:56.987Z,48.37
2019-02-07T15:43:59.201Z,48.39
2019-02-07T15:45:01.435Z,48.39
2019-02-07T15:46:03.644Z,48.49
2019-02-07T15:47:08.754Z,48.56
2019-02-07T15:48:09.913Z,48.61
2019-02-07T15:49:12.429Z,48.64
2019-02-07T15:50:14.671Z,48.68
2019-02-07T15:51:16.873Z,48.72
2019-02-07T15:52:19.084Z,48.68
2019-02-07T15:53:21.300Z,48.69
2019-02-07T15:54:23.801Z,48.66
2019-02-07T15:55:26.034Z,48.46
2019-02-07T15:56:28.216Z,48.46
2019-02-07T15:57:30.426Z,48.46
2019-02-07T15:59:00.530Z,48.40
2019-02-07T16:00:09.570Z,48.38
2019-02-07T16:01:20.875Z,48.30
2019-02-07T16:02:34.297Z,48.25
2019-02-07T16:03:39.007Z,48.25
2019-02-07T16:04:43.543Z,48.23
2019-02-07T16:05:45.826Z,48.22
2019-02-07T16:06:48.036Z,48.17
2019-02-07T16:07:50.235Z,48.17
2019-02-07T16:08:52.467Z,48.22
2019-02-07T16:09:54.673Z,48.18
2019-02-07T16:10:57.333Z,48.17
2019-02-07T16:11:59.540Z,48.22
2019-02-07T16:13:01.753Z,48.13
2019-02-07T16:14:03.964Z,48.15
2019-02-07T16:15:06.150Z,48.16
2019-02-07T16:16:08.379Z,48.26
2019-02-07T16:17:10.577Z,48.10
2019-02-07T16:18:12.784Z,48.12
2019-02-07T16:19:15.066Z,48.11
2019-02-07T16:20:17.418Z,48.16
2019-02-07T16:21:19.948Z,48.12
2019-02-07T16:22:22.163Z,48.15
2019-02-07T16:23:24.365Z,48.17
2019-02-07T16:24:26.656Z,48.16
2019-02-07T16:25:28.851Z,48.18
2019-02-07T16:26:31.082Z,48.15
2019-02-07T16:27:33.287Z,48.14
2019-02-07T16:28:35.502Z,48.17
2019-02-07T16:29:37.746Z,48.15
2019-02-07T16:30:39.975Z,48.12
2019-02-07T16:31:42.323Z,48.13
2019-02-07T16:32:44.939Z,48.15
2019-02-07T16:33:47.159Z,48.15
2019-02-07T16:34:49.392Z,48.15